createdAt,value
2019-03-16T00:00:44.190Z,8.97
2019-03-16T00:03:10.790Z,6.93
2019-03-16T00:05:37.516Z,12.60
2019-03-16T00:08:04.388Z,9.53
2019-03-16T00:10:30.945Z,9.10
2019-03-16T00:12:57.545Z,9.33
2019-03-16T00:15:24.287Z,12.87
2019-03-16T00:17:50.946Z,11.50
2019-03-16T00:20:17.693Z,6.67
2019-03-16T00:22:44.356Z,13.17
2019-03-16T00:25:11.147Z,10.57
2019-03-16T00:27:38.419Z,5.17
2019-03-16T00:30:11.339Z,6.20
2019-03-16T00:32:38.235Z,4.50
2019-03-16T00:35:05.150Z,7.73
2019-03-16T00:37:31.918Z,6.83
2019-03-16T00:39:58.525Z,7.10
2019-03-16T00:42:25.189Z,4.27
2019-03-16T00:44:51.866Z,6.80
2019-03-16T00:47:18.653Z,8.37
2019-03-16T00:49:45.295Z,10.03
2019-03-16T00:52:11.863Z,6.97
2019-03-16T00:54:38.544Z,3.80
2019-03-16T00:57:05.634Z,3.80
2019-03-16T00:59:32.295Z,5.67
2019-03-16T01:01:58.934Z,6.70
2019-03-16T01:04:25.575Z,7.70
2019-03-16T01:06:52.341Z,7.67
2019-03-16T01:09:19.327Z,6.83
2019-03-16T01:11:46.084Z,4.87
2019-03-16T01:14:12.646Z,3.13
2019-03-16T01:16:39.293Z,9.47
2019-03-16T01:19:05.952Z,5.40
2019-03-16T01:21:32.527Z,7.23
2019-03-16T01:23:59.088Z,7.80
2019-03-16T01:26:25.716Z,5.77
2019-03-16T01:28:52.430Z,7.37
2019-03-16T01:31:19.255Z,7.20
2019-03-16T01:33:45.868Z,7.70
2019-03-16T01:36:12.438Z,13.17
2019-03-16T01:38:39.022Z,5.90
2019-03-16T01:41:05.607Z,9.00
2019-03-16T01:43:32.267Z,5.17
2019-03-16T01:45:58.856Z,5.20
2019-03-16T01:48:25.410Z,7.10
2019-03-16T01:50:51.989Z,4.30
2019-03-16T01:53:18.672Z,8.67
2019-03-16T01:55:45.370Z,3.93
2019-03-16T01:58:12.103Z,7.70
2019-03-16T02:00:38.801Z,3.83
2019-03-16T02:03:05.413Z,3.73
2019-03-16T02:05:32.094Z,10.43
2019-03-16T02:07:58.735Z,10.03
2019-03-16T02:10:25.891Z,7.37
2019-03-16T02:12:52.455Z,4.97
2019-03-16T02:16:15.734Z,4.20
2019-03-16T02:18:42.378Z,8.07
2019-03-16T02:21:09.088Z,3.87
2019-03-16T02:23:35.760Z,7.10
2019-03-16T02:26:02.463Z,14.20
2019-03-16T02:28:29.079Z,7.73
2019-03-16T02:30:55.681Z,6.43
2019-03-16T02:33:23.796Z,4.43
2019-03-16T02:35:50.366Z,4.60
2019-03-16T02:38:17.001Z,3.87
2019-03-16T02:40:43.648Z,5.63
2019-03-16T02:43:10.326Z,6.63
2019-03-16T02:45:36.881Z,5.90
2019-03-16T02:48:04.203Z,3.47
2019-03-16T02:50:30.785Z,6.77
2019-03-16T02:52:57.352Z,5.60
2019-03-16T02:56:07.381Z,4.23
2019-03-16T02:58:34.025Z,7.37
2019-03-16T03:01:01.849Z,5.80
2019-03-16T03:03:30.198Z,3.43
2019-03-16T03:05:57.071Z,3.20
2019-03-16T03:08:23.605Z,5.77
2019-03-16T03:10:50.410Z,7.47
2019-03-16T03:13:17.017Z,4.47
2019-03-16T03:15:43.846Z,4.90
2019-03-16T03:18:10.489Z,5.23
2019-03-16T03:20:37.258Z,6.57
2019-03-16T03:23:03.952Z,2.87
2019-03-16T03:25:30.476Z,3.43
2019-03-16T03:27:57.155Z,4.47
2019-03-16T03:30:23.871Z,5.50
2019-03-16T03:32:50.582Z,5.10
2019-03-16T03:35:17.176Z,5.00
2019-03-16T03:37:45.036Z,5.40
2019-03-16T03:40:11.868Z,4.33
2019-03-16T03:42:38.878Z,9.87
2019-03-16T03:45:09.873Z,5.63
2019-03-16T03:47:36.628Z,4.80
2019-03-16T03:50:08.647Z,9.07
2019-03-16T03:52:35.303Z,9.93
2019-03-16T03:55:05.144Z,5.60
2019-03-16T03:57:32.258Z,7.47
2019-03-16T03:59:59.189Z,6.53
2019-03-16T04:02:26.110Z,4.57
2019-03-16T04:04:52.895Z,6.27
2019-03-16T04:07:20.580Z,3.50
2019-03-16T04:09:47.461Z,6.53
2019-03-16T04:12:14.117Z,10.70
2019-03-16T04:14:40.660Z,4.70
2019-03-16T04:17:07.357Z,7.17
2019-03-16T04:19:33.927Z,7.20
2019-03-16T04:22:00.699Z,5.63
2019-03-16T04:24:27.563Z,6.67
2019-03-16T04:26:57.254Z,4.33
2019-03-16T04:29:25.236Z,11.17
2019-03-16T04:31:51.912Z,5.67
2019-03-16T04:34:28.345Z,6.77
2019-03-16T04:36:47.061Z,3.57
2019-03-16T04:39:13.629Z,8.47
2019-03-16T04:41:40.209Z,4.57
2019-03-16T04:44:06.904Z,7.33
2019-03-16T04:46:33.644Z,8.93
2019-03-16T04:49:00.300Z,3.33
2019-03-16T04:51:28.232Z,6.87
2019-03-16T04:53:54.815Z,3.07
2019-03-16T04:56:21.379Z,7.27
2019-03-16T04:58:47.947Z,5.00
2019-03-16T05:01:14.725Z,5.60
2019-03-16T05:03:41.351Z,7.17
2019-03-16T05:06:08.124Z,4.33
2019-03-16T05:08:34.661Z,7.83
2019-03-16T05:11:01.303Z,8.73
2019-03-16T05:13:27.871Z,3.23
2019-03-16T05:15:54.511Z,7.73
2019-03-16T05:18:21.397Z,5.07
2019-03-16T05:20:47.946Z,5.70
2019-03-16T05:23:14.521Z,6.47
2019-03-16T05:25:41.176Z,5.67
2019-03-16T05:28:07.842Z,3.50
2019-03-16T05:30:34.395Z,3.63
2019-03-16T05:33:01.344Z,4.70
2019-03-16T05:35:27.908Z,5.23
2019-03-16T05:37:54.516Z,6.50
2019-03-16T05:40:21.310Z,5.17
2019-03-16T05:42:48.135Z,6.73
2019-03-16T05:45:15.060Z,3.33
2019-03-16T05:47:41.680Z,5.13
2019-03-16T05:51:04.650Z,12.00
2019-03-16T05:53:31.346Z,4.17
2019-03-16T05:55:58.104Z,4.90
2019-03-16T05:58:24.666Z,2.40
2019-03-16T06:00:51.253Z,2.33
2019-03-16T06:03:19.340Z,5.37
2019-03-16T06:05:45.968Z,2.43
2019-03-16T06:08:15.616Z,2.97
2019-03-16T06:10:42.236Z,4.33
2019-03-16T06:13:09.627Z,2.83
2019-03-16T06:15:36.194Z,2.17
2019-03-16T06:18:06.146Z,3.87
2019-03-16T06:20:32.846Z,2.13
2019-03-16T06:22:59.399Z,4.50
2019-03-16T06:25:25.968Z,7.90
2019-03-16T06:27:52.547Z,6.40
2019-03-16T06:30:20.833Z,8.53
2019-03-16T06:32:47.687Z,10.03
2019-03-16T06:35:24.307Z,5.90
2019-03-16T06:37:42.837Z,3.73
2019-03-16T06:40:10.481Z,6.03
2019-03-16T06:42:37.102Z,8.77
2019-03-16T06:45:07.512Z,9.17
2019-03-16T06:47:34.107Z,5.00
2019-03-16T06:50:00.674Z,13.33
2019-03-16T06:52:30.536Z,8.43
2019-03-16T06:54:57.237Z,4.03
2019-03-16T06:57:24.943Z,9.27
2019-03-16T06:59:51.693Z,4.60
2019-03-16T07:02:18.558Z,4.80
2019-03-16T07:04:45.205Z,3.53
2019-03-16T07:07:11.854Z,2.53
2019-03-16T07:09:38.412Z,5.73
2019-03-16T07:12:05.032Z,6.23
2019-03-16T07:14:32.839Z,7.00
2019-03-16T07:17:02.344Z,5.00
2019-03-16T07:19:28.156Z,11.07
2019-03-16T07:21:54.803Z,17.07
2019-03-16T07:24:21.387Z,12.20
2019-03-16T07:27:44.640Z,8.90
2019-03-16T07:30:13.156Z,8.37
2019-03-16T07:32:40.008Z,16.70
2019-03-16T07:35:07.799Z,9.00
2019-03-16T07:37:34.465Z,10.77
2019-03-16T07:40:03.583Z,10.67
2019-03-16T07:42:31.387Z,14.30
2019-03-16T07:45:08.026Z,14.00
2019-03-16T07:47:28.316Z,10.07
2019-03-16T07:49:55.041Z,14.87
2019-03-16T07:52:21.786Z,13.57
2019-03-16T07:54:48.395Z,8.57
2019-03-16T07:57:15.004Z,11.53
2019-03-16T07:59:41.613Z,12.67
2019-03-16T08:02:08.334Z,15.70
2019-03-16T08:04:34.937Z,14.70
2019-03-16T08:07:01.557Z,4.10
2019-03-16T08:09:28.251Z,14.07
2019-03-16T08:11:54.966Z,11.97
2019-03-16T08:14:22.163Z,23.47
2019-03-16T08:16:48.993Z,9.57
2019-03-16T08:19:15.536Z,16.07
2019-03-16T08:21:42.124Z,8.53
2019-03-16T08:24:09.022Z,16.57
2019-03-16T08:26:35.584Z,21.13
2019-03-16T08:29:02.632Z,4.03
2019-03-16T08:31:29.316Z,7.20
2019-03-16T08:33:56.043Z,12.53
2019-03-16T08:36:22.672Z,9.33
2019-03-16T08:38:49.258Z,3.83
2019-03-16T08:41:15.906Z,12.93
2019-03-16T08:43:42.620Z,12.40
2019-03-16T08:46:09.360Z,11.47
2019-03-16T08:48:37.298Z,3.90
2019-03-16T08:51:04.906Z,6.53
2019-03-16T08:53:31.856Z,6.27
2019-03-16T08:55:59.979Z,7.03
2019-03-16T08:58:26.753Z,10.70
2019-03-16T09:00:53.564Z,3.07
2019-03-16T09:03:20.227Z,6.07
2019-03-16T09:05:46.842Z,3.87
2019-03-16T09:08:14.729Z,7.93
2019-03-16T09:10:41.502Z,11.10
2019-03-16T09:13:08.071Z,8.13
2019-03-16T09:15:34.881Z,8.00
2019-03-16T09:18:02.279Z,7.37
2019-03-16T09:20:29.146Z,5.77
2019-03-16T09:22:55.772Z,4.10
2019-03-16T09:25:23.476Z,4.83
2019-03-16T09:27:53.503Z,3.57
2019-03-16T09:30:20.726Z,5.37
2019-03-16T09:32:47.385Z,5.47
2019-03-16T09:35:14.167Z,4.60
2019-03-16T09:37:41.001Z,3.57
2019-03-16T09:40:09.350Z,2.40
2019-03-16T09:42:36.253Z,6.33
2019-03-16T09:45:06.159Z,3.90
2019-03-16T09:47:32.909Z,3.50
2019-03-16T09:49:59.587Z,3.07
2019-03-16T09:52:26.214Z,5.73
2019-03-16T09:54:52.790Z,3.13
2019-03-16T09:57:19.628Z,3.37
2019-03-16T09:59:46.325Z,2.83
2019-03-16T10:02:12.872Z,3.17
2019-03-16T10:04:39.641Z,2.33
2019-03-16T10:07:06.296Z,1.95
2019-03-16T10:09:33.075Z,4.30
2019-03-16T10:11:59.764Z,4.90
2019-03-16T10:14:26.454Z,6.57
2019-03-16T10:16:53.091Z,9.60
2019-03-16T10:19:19.937Z,6.20
2019-03-16T10:21:46.634Z,10.63
2019-03-16T10:24:13.351Z,8.87
2019-03-16T10:26:39.981Z,10.73
2019-03-16T10:29:06.613Z,11.70
2019-03-16T10:31:33.366Z,6.90
2019-03-16T10:34:00.058Z,3.57
2019-03-16T10:36:26.610Z,8.30
2019-03-16T10:38:53.595Z,4.00
2019-03-16T10:41:20.250Z,1.90
2019-03-16T10:43:47.068Z,2.67
2019-03-16T10:46:13.848Z,2.40
2019-03-16T10:48:40.473Z,2.87
2019-03-16T10:51:07.262Z,2.13
2019-03-16T10:53:34.004Z,2.97
2019-03-16T10:56:00.695Z,3.07
2019-03-16T10:58:27.314Z,3.00
2019-03-16T11:00:53.953Z,3.10
2019-03-16T11:03:20.668Z,5.10
2019-03-16T11:05:47.541Z,6.33
2019-03-16T11:08:14.464Z,4.57
2019-03-16T11:10:41.990Z,4.47
2019-03-16T11:13:08.658Z,7.77
2019-03-16T11:15:35.275Z,7.60
2019-03-16T11:18:02.015Z,4.93
2019-03-16T11:21:25.983Z,5.73
2019-03-16T11:23:53.785Z,5.33
2019-03-16T11:26:20.694Z,12.60
2019-03-16T11:28:47.238Z,6.87
2019-03-16T11:31:13.846Z,3.20
2019-03-16T11:33:40.468Z,4.60
2019-03-16T11:36:07.123Z,9.43
2019-03-16T11:38:33.758Z,7.83
2019-03-16T11:41:00.385Z,6.73
2019-03-16T11:43:26.971Z,8.90
2019-03-16T11:45:53.570Z,7.07
2019-03-16T11:48:20.545Z,8.10
2019-03-16T11:50:48.976Z,6.47
2019-03-16T11:53:15.791Z,5.37
2019-03-16T11:55:42.415Z,6.30
2019-03-16T11:58:09.038Z,13.17
2019-03-16T12:00:35.763Z,8.50
2019-03-16T12:03:02.540Z,4.73
2019-03-16T12:05:29.204Z,7.73
2019-03-16T12:07:55.856Z,5.63
2019-03-16T12:10:22.616Z,116.50
2019-03-16T12:12:49.263Z,15.87
2019-03-16T12:15:15.918Z,14.53
2019-03-16T12:17:42.527Z,16.60
2019-03-16T12:20:12.881Z,55.43
2019-03-16T12:22:39.500Z,63.37
2019-03-16T12:25:06.512Z,9.27
2019-03-16T12:27:33.156Z,10.10
2019-03-16T12:29:59.782Z,51.07
2019-03-16T12:32:26.556Z,8.03
2019-03-16T12:34:53.171Z,16.03
2019-03-16T12:37:19.969Z,10.43
2019-03-16T12:39:46.561Z,6.00
2019-03-16T12:42:13.306Z,9.70
2019-03-16T12:44:39.992Z,37.67
2019-03-16T12:47:06.566Z,16.17
2019-03-16T12:49:33.164Z,25.37
2019-03-16T12:51:59.768Z,26.83
2019-03-16T12:54:26.866Z,32.13
2019-03-16T12:56:53.453Z,83.03
2019-03-16T12:59:20.203Z,17.27
2019-03-16T13:01:46.862Z,21.20
2019-03-16T13:04:13.608Z,20.50
2019-03-16T13:06:40.184Z,14.87
2019-03-16T13:09:06.924Z,15.20
2019-03-16T13:11:33.656Z,18.60
2019-03-16T13:14:00.451Z,10.50
2019-03-16T13:16:27.096Z,40.97
2019-03-16T13:18:53.929Z,23.30
2019-03-16T13:21:20.589Z,20.77
2019-03-16T13:23:47.520Z,24.63
2019-03-16T13:26:14.050Z,19.13
2019-03-16T13:28:40.660Z,9.77
2019-03-16T13:31:07.281Z,13.03
2019-03-16T13:33:34.052Z,11.13
2019-03-16T13:36:00.749Z,14.03
2019-03-16T13:38:27.500Z,12.93
2019-03-16T13:40:54.238Z,16.70
2019-03-16T13:43:21.169Z,11.97
2019-03-16T13:45:47.974Z,9.43
2019-03-16T13:48:14.696Z,25.10
2019-03-16T13:50:41.365Z,19.77
2019-03-16T13:53:08.508Z,23.27
2019-03-16T13:55:35.071Z,25.73
2019-03-16T13:58:01.889Z,34.80
2019-03-16T14:00:28.737Z,73.93
2019-03-16T14:02:55.679Z,31.63
2019-03-16T14:05:22.604Z,90.27
2019-03-16T14:07:49.464Z,42.63
2019-03-16T14:10:20.954Z,45.93
2019-03-16T14:12:47.599Z,38.40
2019-03-16T14:15:14.421Z,26.27
2019-03-16T14:17:42.667Z,42.67
2019-03-16T14:20:13.758Z,20.23
2019-03-16T14:22:40.491Z,13.43
2019-03-16T14:25:08.618Z,16.77
2019-03-16T14:27:35.338Z,9.37
2019-03-16T14:30:06.439Z,10.97
2019-03-16T14:32:33.028Z,13.40
2019-03-16T14:34:59.638Z,10.63
2019-03-16T14:37:26.827Z,10.90
2019-03-16T14:39:53.873Z,28.33
2019-03-16T14:42:20.731Z,11.83
2019-03-16T14:44:47.496Z,10.07
2019-03-16T14:47:14.191Z,5.60
2019-03-16T14:49:41.180Z,7.50
2019-03-16T14:52:07.940Z,13.93
2019-03-16T14:54:34.614Z,14.13
2019-03-16T14:57:02.071Z,19.50
2019-03-16T14:59:29.015Z,13.70
2019-03-16T15:01:55.598Z,10.20
2019-03-16T15:04:22.639Z,11.27
2019-03-16T15:06:49.260Z,12.73
2019-03-16T15:09:15.962Z,12.47
2019-03-16T15:11:42.552Z,21.20
2019-03-16T15:15:05.265Z,16.87
2019-03-16T15:17:31.969Z,10.57
2019-03-16T15:19:58.712Z,5.70
2019-03-16T15:22:25.477Z,8.13
2019-03-16T15:24:52.117Z,13.40
2019-03-16T15:27:20.220Z,13.67
2019-03-16T15:29:46.810Z,16.10
2019-03-16T15:32:13.419Z,16.07
2019-03-16T15:34:40.224Z,29.43
2019-03-16T15:37:07.366Z,12.27
2019-03-16T15:39:34.127Z,29.27
2019-03-16T15:42:00.799Z,19.23
2019-03-16T15:44:27.620Z,12.13
2019-03-16T15:46:54.240Z,9.53
2019-03-16T15:49:21.127Z,13.20
2019-03-16T15:51:47.701Z,14.83
2019-03-16T15:54:14.286Z,10.57
2019-03-16T15:56:41.035Z,15.43
2019-03-16T15:59:07.611Z,13.63
2019-03-16T16:01:34.316Z,21.50
2019-03-16T16:04:00.947Z,18.27
2019-03-16T16:06:27.604Z,16.90
2019-03-16T16:08:54.246Z,13.90
2019-03-16T16:11:21.111Z,16.83
2019-03-16T16:13:47.740Z,20.47
2019-03-16T16:16:14.319Z,10.43
2019-03-16T16:18:41.247Z,14.87
2019-03-16T16:21:08.099Z,38.23
2019-03-16T16:23:34.843Z,141.50
2019-03-16T16:26:01.734Z,72.83
2019-03-16T16:28:28.570Z,23.43
2019-03-16T16:31:51.671Z,61.73
2019-03-16T16:34:19.597Z,105.57
2019-03-16T16:36:46.172Z,57.50
2019-03-16T16:39:14.430Z,41.57
2019-03-16T16:41:41.301Z,33.60
2019-03-16T16:44:08.056Z,41.53
2019-03-16T16:46:34.886Z,85.93
2019-03-16T16:49:01.493Z,69.00
2019-03-16T16:51:28.241Z,45.63
2019-03-16T16:53:55.736Z,54.83
2019-03-16T16:56:22.637Z,148.53
2019-03-16T16:58:49.807Z,75.00
2019-03-16T17:01:28.413Z,50.83
2019-03-16T17:03:45.204Z,59.57
2019-03-16T17:06:12.138Z,26.63
2019-03-16T17:08:38.972Z,22.63
2019-03-16T17:11:06.122Z,17.20
2019-03-16T17:13:32.839Z,25.03
2019-03-16T17:15:59.638Z,16.10
2019-03-16T17:18:26.853Z,31.37
2019-03-16T17:20:53.535Z,37.97
2019-03-16T17:23:20.418Z,36.20
2019-03-16T17:25:47.253Z,44.37
2019-03-16T17:28:14.759Z,45.83
2019-03-16T17:30:41.796Z,66.97
2019-03-16T17:33:08.553Z,77.73
2019-03-16T17:35:35.918Z,67.60
2019-03-16T17:38:02.919Z,52.00
2019-03-16T17:40:29.949Z,68.03
2019-03-16T17:42:56.749Z,73.50
2019-03-16T17:45:24.724Z,81.37
2019-03-16T17:47:51.622Z,70.90
2019-03-16T17:50:18.775Z,60.87
2019-03-16T17:52:45.540Z,58.67
2019-03-16T17:55:14.999Z,43.47
2019-03-16T17:57:45.079Z,41.57
2019-03-16T18:00:13.458Z,46.67
2019-03-16T18:02:50.485Z,75.87
2019-03-16T18:05:11.323Z,45.67
2019-03-16T18:07:38.134Z,43.97
2019-03-16T18:10:08.099Z,76.23
2019-03-16T18:13:33.788Z,44.83
2019-03-16T18:16:01.339Z,30.23
2019-03-16T18:19:25.884Z,50.43
2019-03-16T18:21:53.655Z,35.03
2019-03-16T18:24:22.398Z,33.07
2019-03-16T18:26:51.072Z,42.53
2019-03-16T18:29:18.617Z,53.87
2019-03-16T18:31:49.540Z,42.33
2019-03-16T18:34:23.149Z,43.57
2019-03-16T18:36:58.592Z,49.50
2019-03-16T18:39:35.324Z,51.83
2019-03-16T18:42:05.821Z,57.53
2019-03-16T18:44:41.617Z,68.00
2019-03-16T18:47:16.542Z,67.73
2019-03-16T18:49:47.775Z,61.60
2019-03-16T18:52:15.129Z,61.30
2019-03-16T18:55:38.509Z,68.07
2019-03-16T18:58:05.769Z,61.13
2019-03-16T19:00:32.930Z,53.93
2019-03-16T19:02:59.540Z,52.60
2019-03-16T19:05:26.397Z,46.97
2019-03-16T19:07:53.353Z,44.53
2019-03-16T19:11:35.044Z,44.57
2019-03-16T19:14:01.715Z,34.80
2019-03-16T19:16:28.797Z,41.73
2019-03-16T19:18:55.407Z,55.53
2019-03-16T19:21:22.115Z,57.57
2019-03-16T19:23:49.203Z,55.63
2019-03-16T19:26:16.044Z,50.00
2019-03-16T19:28:44.530Z,48.30
2019-03-16T19:31:11.204Z,53.07
2019-03-16T19:33:38.011Z,44.10
2019-03-16T19:37:00.925Z,50.67
2019-03-16T19:39:27.879Z,47.83
2019-03-16T19:41:54.592Z,47.83
2019-03-16T19:44:21.634Z,32.23
2019-03-16T19:46:48.439Z,35.50
2019-03-16T19:49:15.758Z,36.37
2019-03-16T19:51:42.492Z,35.17
2019-03-16T19:55:05.649Z,37.30
2019-03-16T19:57:32.716Z,30.63
2019-03-16T19:59:59.509Z,25.77
2019-03-16T20:02:26.287Z,33.77
2019-03-16T20:04:52.914Z,30.67
2019-03-16T20:07:22.896Z,32.67
2019-03-16T20:09:48.604Z,32.63
2019-03-16T20:12:15.555Z,36.37
2019-03-16T20:14:42.529Z,31.43
2019-03-16T20:17:09.619Z,36.87
2019-03-16T20:19:36.285Z,29.13
2019-03-16T20:22:03.359Z,29.93
2019-03-16T20:24:29.963Z,36.47
2019-03-16T20:26:56.763Z,31.50
2019-03-16T20:29:23.589Z,37.53
2019-03-16T20:32:48.539Z,28.93
2019-03-16T20:35:15.639Z,32.20
2019-03-16T20:37:42.401Z,31.93
2019-03-16T20:40:12.507Z,31.30
2019-03-16T20:42:39.227Z,33.57
2019-03-16T20:45:08.898Z,31.43
2019-03-16T20:47:35.640Z,39.90
2019-03-16T20:50:07.134Z,36.43
2019-03-16T20:52:35.607Z,32.20
2019-03-16T20:55:07.798Z,33.17
2019-03-16T20:57:34.575Z,34.90
2019-03-16T21:00:02.767Z,30.97
2019-03-16T21:02:30.559Z,32.10
2019-03-16T21:04:57.145Z,37.90
2019-03-16T21:07:25.019Z,39.37
2019-03-16T21:09:51.842Z,42.97
2019-03-16T21:12:19.096Z,36.03
2019-03-16T21:14:46.277Z,35.83
2019-03-16T21:17:13.238Z,35.73
2019-03-16T21:19:39.864Z,40.63
2019-03-16T21:22:06.774Z,38.40
2019-03-16T21:24:33.522Z,32.23
2019-03-16T21:27:00.111Z,36.93
2019-03-16T21:29:26.780Z,41.10
2019-03-16T21:31:53.592Z,32.97
2019-03-16T21:35:16.448Z,34.17
2019-03-16T21:37:43.389Z,41.17
2019-03-16T21:40:14.088Z,36.43
2019-03-16T21:42:41.029Z,47.23
2019-03-16T21:45:10.334Z,38.07
2019-03-16T21:47:37.199Z,35.63
2019-03-16T21:50:09.564Z,40.07
2019-03-16T21:52:36.503Z,40.83
2019-03-16T21:55:07.275Z,40.63
2019-03-16T21:57:34.234Z,37.17
2019-03-16T22:00:01.020Z,43.00
2019-03-16T22:02:27.782Z,42.83
2019-03-16T22:04:54.752Z,46.60
2019-03-16T22:07:21.843Z,50.97
2019-03-16T22:09:48.648Z,167.93
2019-03-16T22:12:15.350Z,137.20
2019-03-16T22:14:42.167Z,88.90
2019-03-16T22:17:08.842Z,79.40
2019-03-16T22:19:35.431Z,72.50
2019-03-16T22:22:02.140Z,67.90
2019-03-16T22:24:28.877Z,71.67
2019-03-16T22:27:52.224Z,69.53
2019-03-16T22:30:19.666Z,64.90
2019-03-16T22:32:46.252Z,69.40
2019-03-16T22:35:12.885Z,65.73
2019-03-16T22:37:39.590Z,61.00
2019-03-16T22:40:10.073Z,62.03
2019-03-16T22:42:36.829Z,59.37
2019-03-16T22:45:07.936Z,61.60
2019-03-16T22:47:34.691Z,55.67
2019-03-16T22:50:02.593Z,53.30
2019-03-16T22:52:29.603Z,51.27
2019-03-16T22:54:57.147Z,59.73
2019-03-16T22:57:26.272Z,56.83
2019-03-16T22:59:53.755Z,52.70
2019-03-16T23:02:21.564Z,55.33
2019-03-16T23:04:49.171Z,51.23
2019-03-16T23:07:16.958Z,48.07
2019-03-16T23:09:44.827Z,56.07
2019-03-16T23:12:12.431Z,52.53
2019-03-16T23:14:40.495Z,47.47
2019-03-16T23:17:07.636Z,47.33
2019-03-16T23:19:35.222Z,49.50
2019-03-16T23:22:02.136Z,43.20
2019-03-16T23:24:31.964Z,50.10
2019-03-16T23:26:58.643Z,50.03
2019-03-16T23:29:26.446Z,46.37
2019-03-16T23:31:53.163Z,54.90
2019-03-16T23:34:20.114Z,54.57
2019-03-16T23:36:46.808Z,56.67
2019-03-16T23:39:13.912Z,60.90
2019-03-16T23:41:40.468Z,62.23
2019-03-16T23:44:07.087Z,60.83
2019-03-16T23:46:33.813Z,66.20
2019-03-16T23:49:00.421Z,62.87
2019-03-16T23:51:27.035Z,54.50
2019-03-16T23:53:53.618Z,62.97
2019-03-16T23:56:20.398Z,64.83
2019-03-16T23:58:47.093Z,55.73
